sensor_id;sensor_type;location;lat;lon;timestamp;P1;durP1;ratioP1;P2;durP2;ratioP2
12884;SDS011;6510;51.362;7.370;2023-03-01T00:01:28;11.07;;;8.07;;
12884;SDS011;6510;51.362;7.370;2023-03-01T00:03:56;9.20;;;7.03;;
12884;SDS011;6510;51.362;7.370;2023-03-01T00:06:23;12.47;;;7.90;;
12884;SDS011;6510;51.362;7.370;2023-03-01T00:08:49;12.30;;;7.83;;
12884;SDS011;6510;51.362;7.370;2023-03-01T00:11:19;8.97;;;7.07;;
12884;SDS011;6510;51.362;7.370;2023-03-01T00:13:51;9.43;;;7.23;;
12884;SDS011;6510;51.362;7.370;2023-03-01T00:16:20;12.63;;;7.80;;
12884;SDS011;6510;51.362;7.370;2023-03-01T00:18:48;10.30;;;7.77;;
12884;SDS011;6510;51.362;7.370;2023-03-01T00:21:13;12.03;;;7.73;;
12884;SDS011;6510;51.362;7.370;2023-03-01T00:23:39;10.93;;;7.50;;
12884;SDS011;6510;51.362;7.370;2023-03-01T00:26:06;11.60;;;7.53;;
12884;SDS011;6510;51.362;7.370;2023-03-01T00:28:33;11.87;;;7.90;;
12884;SDS011;6510;51.362;7.370;2023-03-01T00:31:03;10.00;;;7.07;;
12884;SDS011;6510;51.362;7.370;2023-03-01T00:33:30;10.60;;;7.80;;
12884;SDS011;6510;51.362;7.370;2023-03-01T00:35:57;10.70;;;7.23;;
12884;SDS011;6510;51.362;7.370;2023-03-01T00:38:23;13.17;;;7.77;;
12884;SDS011;6510;51.362;7.370;2023-03-01T00:40:49;13.60;;;7.20;;
12884;SDS011;6510;51.362;7.370;2023-03-01T00:43:15;11.17;;;7.53;;
12884;SDS011;6510;51.362;7.370;2023-03-01T00:45:40;12.47;;;7.03;;
12884;SDS011;6510;51.362;7.370;2023-03-01T00:48:06;13.63;;;7.83;;
12884;SDS011;6510;51.362;7.370;2023-03-01T00:50:32;10.30;;;7.63;;
12884;SDS011;6510;51.362;7.370;2023-03-01T00:52:57;11.97;;;7.43;;
12884;SDS011;6510;51.362;7.370;2023-03-01T00:55:23;11.00;;;7.50;;
12884;SDS011;6510;51.362;7.370;2023-03-01T00:57:50;13.23;;;7.87;;
12884;SDS011;6510;51.362;7.370;2023-03-01T01:00:16;12.97;;;7.83;;
12884;SDS011;6510;51.362;7.370;2023-03-01T01:02:43;10.30;;;7.70;;
12884;SDS011;6510;51.362;7.370;2023-03-01T01:05:09;11.10;;;7.70;;
12884;SDS011;6510;51.362;7.370;2023-03-01T01:07:35;13.43;;;8.13;;
12884;SDS011;6510;51.362;7.370;2023-03-01T01:10:01;10.20;;;7.57;;
12884;SDS011;6510;51.362;7.370;2023-03-01T01:12:27;11.97;;;7.83;;
12884;SDS011;6510;51.362;7.370;2023-03-01T01:14:53;10.60;;;6.83;;
12884;SDS011;6510;51.362;7.370;2023-03-01T01:17:18;11.47;;;7.33;;
12884;SDS011;6510;51.362;7.370;2023-03-01T01:19:44;9.33;;;7.13;;
12884;SDS011;6510;51.362;7.370;2023-03-01T01:22:10;9.70;;;7.30;;
12884;SDS011;6510;51.362;7.370;2023-03-01T01:24:36;8.23;;;6.63;;
12884;SDS011;6510;51.362;7.370;2023-03-01T01:27:01;9.60;;;7.00;;
12884;SDS011;6510;51.362;7.370;2023-03-01T01:29:27;12.63;;;7.93;;
12884;SDS011;6510;51.362;7.370;2023-03-01T01:31:53;11.03;;;6.63;;
12884;SDS011;6510;51.362;7.370;2023-03-01T01:34:20;10.47;;;7.03;;
12884;SDS011;6510;51.362;7.370;2023-03-01T01:36:50;10.57;;;6.97;;
12884;SDS011;6510;51.362;7.370;2023-03-01T01:39:19;11.83;;;7.47;;
12884;SDS011;6510;51.362;7.370;2023-03-01T01:41:48;13.47;;;8.03;;
12884;SDS011;6510;51.362;7.370;2023-03-01T01:44:18;13.33;;;7.87;;
12884;SDS011;6510;51.362;7.370;2023-03-01T01:46:50;13.10;;;7.70;;
12884;SDS011;6510;51.362;7.370;2023-03-01T01:49:33;11.40;;;7.20;;
12884;SDS011;6510;51.362;7.370;2023-03-01T01:54:51;12.27;;;8.07;;
12884;SDS011;6510;51.362;7.370;2023-03-01T01:57:24;15.33;;;7.30;;
12884;SDS011;6510;51.362;7.370;2023-03-01T01:59:53;11.10;;;7.80;;
12884;SDS011;6510;51.362;7.370;2023-03-01T02:02:21;11.27;;;7.43;;
12884;SDS011;6510;51.362;7.370;2023-03-01T02:04:47;9.43;;;7.60;;
12884;SDS011;6510;51.362;7.370;2023-03-01T02:07:19;11.20;;;7.97;;
12884;SDS011;6510;51.362;7.370;2023-03-01T02:09:48;12.60;;;7.73;;
12884;SDS011;6510;51.362;7.370;2023-03-01T02:12:17;13.47;;;8.43;;
12884;SDS011;6510;51.362;7.370;2023-03-01T02:14:45;15.53;;;9.23;;
12884;SDS011;6510;51.362;7.370;2023-03-01T02:17:11;12.33;;;8.43;;
12884;SDS011;6510;51.362;7.370;2023-03-01T02:22:33;13.87;;;8.30;;
12884;SDS011;6510;51.362;7.370;2023-03-01T02:27:38;10.20;;;7.77;;
12884;SDS011;6510;51.362;7.370;2023-03-01T02:30:12;13.47;;;8.53;;
12884;SDS011;6510;51.362;7.370;2023-03-01T02:32:39;12.67;;;8.10;;
12884;SDS011;6510;51.362;7.370;2023-03-01T02:35:08;13.90;;;8.37;;
12884;SDS011;6510;51.362;7.370;2023-03-01T02:37:37;13.03;;;8.43;;
12884;SDS011;6510;51.362;7.370;2023-03-01T02:40:06;11.17;;;7.33;;
12884;SDS011;6510;51.362;7.370;2023-03-01T02:42:40;11.27;;;7.97;;
12884;SDS011;6510;51.362;7.370;2023-03-01T02:45:14;13.23;;;8.50;;
12884;SDS011;6510;51.362;7.370;2023-03-01T02:47:40;10.37;;;7.43;;
12884;SDS011;6510;51.362;7.370;2023-03-01T02:50:12;13.93;;;8.20;;
12884;SDS011;6510;51.362;7.370;2023-03-01T02:52:57;9.57;;;7.43;;
12884;SDS011;6510;51.362;7.370;2023-03-01T02:55:32;12.27;;;8.00;;
12884;SDS011;6510;51.362;7.370;2023-03-01T02:57:57;10.70;;;8.20;;
12884;SDS011;6510;51.362;7.370;2023-03-01T03:00:33;14.23;;;8.77;;
12884;SDS011;6510;51.362;7.370;2023-03-01T03:03:05;13.23;;;8.30;;
12884;SDS011;6510;51.362;7.370;2023-03-01T03:05:32;10.23;;;7.83;;
12884;SDS011;6510;51.362;7.370;2023-03-01T03:07:58;12.27;;;7.87;;
12884;SDS011;6510;51.362;7.370;2023-03-01T03:10:30;14.80;;;8.33;;
12884;SDS011;6510;51.362;7.370;2023-03-01T03:12:59;10.60;;;8.00;;
12884;SDS011;6510;51.362;7.370;2023-03-01T03:15:27;13.23;;;8.33;;
12884;SDS011;6510;51.362;7.370;2023-03-01T03:17:54;14.53;;;8.27;;
12884;SDS011;6510;51.362;7.370;2023-03-01T03:20:22;13.23;;;8.07;;
12884;SDS011;6510;51.362;7.370;2023-03-01T03:22:50;17.20;;;8.07;;
12884;SDS011;6510;51.362;7.370;2023-03-01T03:25:18;14.27;;;8.37;;
12884;SDS011;6510;51.362;7.370;2023-03-01T03:27:45;12.23;;;8.50;;
12884;SDS011;6510;51.362;7.370;2023-03-01T03:30:15;12.90;;;8.50;;
12884;SDS011;6510;51.362;7.370;2023-03-01T03:32:43;12.10;;;9.00;;
12884;SDS011;6510;51.362;7.370;2023-03-01T03:37:44;14.07;;;9.70;;
12884;SDS011;6510;51.362;7.370;2023-03-01T03:43:02;19.67;;;9.50;;
12884;SDS011;6510;51.362;7.370;2023-03-01T03:45:35;16.30;;;10.03;;
12884;SDS011;6510;51.362;7.370;2023-03-01T03:48:02;16.03;;;9.27;;
12884;SDS011;6510;51.362;7.370;2023-03-01T03:50:29;13.73;;;9.07;;
12884;SDS011;6510;51.362;7.370;2023-03-01T03:52:55;13.27;;;8.87;;
12884;SDS011;6510;51.362;7.370;2023-03-01T03:55:21;13.83;;;8.87;;
12884;SDS011;6510;51.362;7.370;2023-03-01T03:57:47;11.97;;;8.43;;
12884;SDS011;6510;51.362;7.370;2023-03-01T04:00:20;12.53;;;8.93;;
12884;SDS011;6510;51.362;7.370;2023-03-01T04:02:48;12.37;;;8.43;;
12884;SDS011;6510;51.362;7.370;2023-03-01T04:05:16;12.90;;;8.60;;
12884;SDS011;6510;51.362;7.370;2023-03-01T04:07:43;11.90;;;8.63;;
12884;SDS011;6510;51.362;7.370;2023-03-01T04:10:10;12.70;;;8.47;;
12884;SDS011;6510;51.362;7.370;2023-03-01T04:12:38;11.97;;;8.10;;
12884;SDS011;6510;51.362;7.370;2023-03-01T04:15:04;12.13;;;8.80;;
12884;SDS011;6510;51.362;7.370;2023-03-01T04:17:41;16.33;;;9.00;;
12884;SDS011;6510;51.362;7.370;2023-03-01T04:20:15;14.83;;;8.97;;
12884;SDS011;6510;51.362;7.370;2023-03-01T04:22:42;13.77;;;8.37;;
12884;SDS011;6510;51.362;7.370;2023-03-01T04:25:11;14.93;;;9.17;;
12884;SDS011;6510;51.362;7.370;2023-03-01T04:27:39;14.43;;;9.67;;
12884;SDS011;6510;51.362;7.370;2023-03-01T04:30:05;14.00;;;9.10;;
12884;SDS011;6510;51.362;7.370;2023-03-01T04:32:31;13.70;;;8.93;;
12884;SDS011;6510;51.362;7.370;2023-03-01T04:34:57;13.13;;;8.47;;
12884;SDS011;6510;51.362;7.370;2023-03-01T04:37:23;14.20;;;9.53;;
12884;SDS011;6510;51.362;7.370;2023-03-01T04:39:49;14.53;;;9.50;;
12884;SDS011;6510;51.362;7.370;2023-03-01T04:42:15;15.43;;;9.83;;
12884;SDS011;6510;51.362;7.370;2023-03-01T04:44:41;18.50;;;10.17;;
12884;SDS011;6510;51.362;7.370;2023-03-01T04:47:07;13.90;;;8.93;;
12884;SDS011;6510;51.362;7.370;2023-03-01T04:49:33;14.63;;;9.37;;
12884;SDS011;6510;51.362;7.370;2023-03-01T04:51:58;13.97;;;9.53;;
12884;SDS011;6510;51.362;7.370;2023-03-01T04:54:26;16.77;;;9.53;;
12884;SDS011;6510;51.362;7.370;2023-03-01T04:56:55;16.00;;;10.20;;
12884;SDS011;6510;51.362;7.370;2023-03-01T04:59:21;15.43;;;9.70;;
12884;SDS011;6510;51.362;7.370;2023-03-01T05:01:48;15.27;;;9.90;;
12884;SDS011;6510;51.362;7.370;2023-03-01T05:04:14;16.93;;;10.03;;
12884;SDS011;6510;51.362;7.370;2023-03-01T05:06:40;17.53;;;10.27;;
12884;SDS011;6510;51.362;7.370;2023-03-01T05:09:05;15.93;;;10.60;;
12884;SDS011;6510;51.362;7.370;2023-03-01T05:11:31;15.00;;;10.07;;
12884;SDS011;6510;51.362;7.370;2023-03-01T05:14:01;15.83;;;10.37;;
12884;SDS011;6510;51.362;7.370;2023-03-01T05:16:27;13.97;;;9.57;;
12884;SDS011;6510;51.362;7.370;2023-03-01T05:18:53;17.50;;;9.37;;
12884;SDS011;6510;51.362;7.370;2023-03-01T05:21:20;16.17;;;10.30;;
12884;SDS011;6510;51.362;7.370;2023-03-01T05:23:46;16.97;;;10.00;;
12884;SDS011;6510;51.362;7.370;2023-03-01T05:26:12;16.27;;;9.03;;
12884;SDS011;6510;51.362;7.370;2023-03-01T05:28:38;15.13;;;10.03;;
12884;SDS011;6510;51.362;7.370;2023-03-01T05:31:05;13.43;;;9.30;;
12884;SDS011;6510;51.362;7.370;2023-03-01T05:33:34;15.33;;;9.63;;
12884;SDS011;6510;51.362;7.370;2023-03-01T05:36:05;16.43;;;9.17;;
12884;SDS011;6510;51.362;7.370;2023-03-01T05:38:32;18.50;;;9.33;;
12884;SDS011;6510;51.362;7.370;2023-03-01T05:40:58;13.80;;;9.13;;
12884;SDS011;6510;51.362;7.370;2023-03-01T05:43:24;14.67;;;9.43;;
12884;SDS011;6510;51.362;7.370;2023-03-01T05:45:50;15.00;;;9.13;;
12884;SDS011;6510;51.362;7.370;2023-03-01T05:48:16;16.03;;;9.23;;
12884;SDS011;6510;51.362;7.370;2023-03-01T05:50:44;14.63;;;9.10;;
12884;SDS011;6510;51.362;7.370;2023-03-01T05:53:13;15.53;;;9.63;;
12884;SDS011;6510;51.362;7.370;2023-03-01T05:55:44;16.50;;;9.33;;
12884;SDS011;6510;51.362;7.370;2023-03-01T05:58:13;14.57;;;9.40;;
12884;SDS011;6510;51.362;7.370;2023-03-01T06:00:41;15.83;;;9.30;;
12884;SDS011;6510;51.362;7.370;2023-03-01T06:03:09;15.63;;;9.83;;
12884;SDS011;6510;51.362;7.370;2023-03-01T06:05:35;16.50;;;9.90;;
12884;SDS011;6510;51.362;7.370;2023-03-01T06:08:01;17.97;;;11.43;;
12884;SDS011;6510;51.362;7.370;2023-03-01T06:10:28;17.03;;;10.70;;
12884;SDS011;6510;51.362;7.370;2023-03-01T06:12:53;17.60;;;10.97;;
12884;SDS011;6510;51.362;7.370;2023-03-01T06:15:19;19.00;;;10.27;;
12884;SDS011;6510;51.362;7.370;2023-03-01T06:17:45;21.80;;;12.00;;
12884;SDS011;6510;51.362;7.370;2023-03-01T06:20:12;14.77;;;10.40;;
12884;SDS011;6510;51.362;7.370;2023-03-01T06:22:40;19.67;;;12.57;;
12884;SDS011;6510;51.362;7.370;2023-03-01T06:25:07;18.20;;;11.10;;
12884;SDS011;6510;51.362;7.370;2023-03-01T06:27:33;18.93;;;10.90;;
12884;SDS011;6510;51.362;7.370;2023-03-01T06:29:59;17.97;;;10.17;;
12884;SDS011;6510;51.362;7.370;2023-03-01T06:32:24;17.50;;;10.87;;
12884;SDS011;6510;51.362;7.370;2023-03-01T06:34:50;17.67;;;10.33;;
12884;SDS011;6510;51.362;7.370;2023-03-01T06:37:16;13.97;;;9.80;;
12884;SDS011;6510;51.362;7.370;2023-03-01T06:39:42;19.43;;;10.20;;
12884;SDS011;6510;51.362;7.370;2023-03-01T06:42:08;14.90;;;9.43;;
12884;SDS011;6510;51.362;7.370;2023-03-01T06:44:34;15.37;;;9.53;;
12884;SDS011;6510;51.362;7.370;2023-03-01T06:47:00;16.00;;;9.83;;
12884;SDS011;6510;51.362;7.370;2023-03-01T06:49:26;17.27;;;9.87;;
12884;SDS011;6510;51.362;7.370;2023-03-01T06:51:52;15.00;;;9.93;;
12884;SDS011;6510;51.362;7.370;2023-03-01T06:54:17;17.27;;;10.53;;
12884;SDS011;6510;51.362;7.370;2023-03-01T06:56:46;15.47;;;9.03;;
12884;SDS011;6510;51.362;7.370;2023-03-01T06:59:12;18.40;;;10.73;;
12884;SDS011;6510;51.362;7.370;2023-03-01T07:01:37;16.77;;;9.63;;
12884;SDS011;6510;51.362;7.370;2023-03-01T07:04:03;16.33;;;9.80;;
12884;SDS011;6510;51.362;7.370;2023-03-01T07:06:29;15.00;;;9.90;;
12884;SDS011;6510;51.362;7.370;2023-03-01T07:08:55;14.23;;;9.87;;
12884;SDS011;6510;51.362;7.370;2023-03-01T07:11:20;16.70;;;10.63;;
12884;SDS011;6510;51.362;7.370;2023-03-01T07:13:46;17.43;;;11.43;;
12884;SDS011;6510;51.362;7.370;2023-03-01T07:16:12;17.10;;;10.67;;
12884;SDS011;6510;51.362;7.370;2023-03-01T07:18:39;15.33;;;9.90;;
12884;SDS011;6510;51.362;7.370;2023-03-01T07:21:05;12.30;;;9.13;;
12884;SDS011;6510;51.362;7.370;2023-03-01T07:23:32;14.53;;;9.53;;
12884;SDS011;6510;51.362;7.370;2023-03-01T07:25:57;13.30;;;8.40;;
12884;SDS011;6510;51.362;7.370;2023-03-01T07:28:23;11.40;;;8.27;;
12884;SDS011;6510;51.362;7.370;2023-03-01T07:30:49;10.67;;;7.57;;
12884;SDS011;6510;51.362;7.370;2023-03-01T07:33:15;11.40;;;7.70;;
12884;SDS011;6510;51.362;7.370;2023-03-01T07:35:42;11.20;;;7.87;;
12884;SDS011;6510;51.362;7.370;2023-03-01T07:38:08;9.97;;;6.80;;
12884;SDS011;6510;51.362;7.370;2023-03-01T07:40:35;10.67;;;7.40;;
12884;SDS011;6510;51.362;7.370;2023-03-01T07:43:00;10.47;;;7.30;;
12884;SDS011;6510;51.362;7.370;2023-03-01T07:45:27;7.90;;;7.10;;
12884;SDS011;6510;51.362;7.370;2023-03-01T07:47:53;9.10;;;7.07;;
12884;SDS011;6510;51.362;7.370;2023-03-01T07:50:20;7.53;;;6.73;;
12884;SDS011;6510;51.362;7.370;2023-03-01T07:52:47;8.30;;;7.27;;
12884;SDS011;6510;51.362;7.370;2023-03-01T07:55:14;10.07;;;7.33;;
12884;SDS011;6510;51.362;7.370;2023-03-01T07:57:40;8.87;;;6.87;;
12884;SDS011;6510;51.362;7.370;2023-03-01T08:00:06;9.00;;;7.43;;
12884;SDS011;6510;51.362;7.370;2023-03-01T08:02:32;8.20;;;6.80;;
12884;SDS011;6510;51.362;7.370;2023-03-01T08:04:58;8.37;;;7.37;;
12884;SDS011;6510;51.362;7.370;2023-03-01T08:07:24;7.87;;;7.07;;
12884;SDS011;6510;51.362;7.370;2023-03-01T08:09:49;9.97;;;6.97;;
12884;SDS011;6510;51.362;7.370;2023-03-01T08:12:15;7.57;;;6.80;;
12884;SDS011;6510;51.362;7.370;2023-03-01T08:14:41;8.23;;;7.13;;
12884;SDS011;6510;51.362;7.370;2023-03-01T08:17:07;8.67;;;6.90;;
12884;SDS011;6510;51.362;7.370;2023-03-01T08:19:33;10.17;;;7.83;;
12884;SDS011;6510;51.362;7.370;2023-03-01T08:21:59;8.77;;;7.20;;
12884;SDS011;6510;51.362;7.370;2023-03-01T08:24:27;8.00;;;7.20;;
12884;SDS011;6510;51.362;7.370;2023-03-01T08:26:53;7.50;;;6.57;;
12884;SDS011;6510;51.362;7.370;2023-03-01T08:29:18;8.53;;;7.73;;
12884;SDS011;6510;51.362;7.370;2023-03-01T08:31:44;8.53;;;7.30;;
12884;SDS011;6510;51.362;7.370;2023-03-01T08:34:11;8.17;;;7.37;;
12884;SDS011;6510;51.362;7.370;2023-03-01T08:36:42;8.83;;;7.80;;
12884;SDS011;6510;51.362;7.370;2023-03-01T08:39:09;8.00;;;7.20;;
12884;SDS011;6510;51.362;7.370;2023-03-01T08:41:37;9.20;;;7.63;;
12884;SDS011;6510;51.362;7.370;2023-03-01T08:44:03;8.03;;;7.23;;
12884;SDS011;6510;51.362;7.370;2023-03-01T08:46:30;8.70;;;7.90;;
12884;SDS011;6510;51.362;7.370;2023-03-01T08:48:57;10.70;;;8.10;;
12884;SDS011;6510;51.362;7.370;2023-03-01T08:51:23;8.33;;;7.33;;
12884;SDS011;6510;51.362;7.370;2023-03-01T08:53:50;9.67;;;7.50;;
12884;SDS011;6510;51.362;7.370;2023-03-01T08:56:16;8.83;;;7.63;;
12884;SDS011;6510;51.362;7.370;2023-03-01T08:58:47;8.77;;;7.87;;
12884;SDS011;6510;51.362;7.370;2023-03-01T09:01:15;8.67;;;7.50;;
12884;SDS011;6510;51.362;7.370;2023-03-01T09:03:42;8.57;;;7.57;;
12884;SDS011;6510;51.362;7.370;2023-03-01T09:06:09;9.03;;;7.23;;
12884;SDS011;6510;51.362;7.370;2023-03-01T09:08:38;7.73;;;6.90;;
12884;SDS011;6510;51.362;7.370;2023-03-01T09:11:06;9.23;;;6.97;;
12884;SDS011;6510;51.362;7.370;2023-03-01T09:13:34;7.53;;;6.63;;
12884;SDS011;6510;51.362;7.370;2023-03-01T09:16:01;8.90;;;7.10;;
12884;SDS011;6510;51.362;7.370;2023-03-01T09:18:30;7.67;;;6.63;;
12884;SDS011;6510;51.362;7.370;2023-03-01T09:23:47;7.40;;;6.60;;
12884;SDS011;6510;51.362;7.370;2023-03-01T09:26:15;7.97;;;6.67;;
12884;SDS011;6510;51.362;7.370;2023-03-01T09:28:46;8.17;;;6.13;;
12884;SDS011;6510;51.362;7.370;2023-03-01T09:31:12;8.23;;;5.97;;
12884;SDS011;6510;51.362;7.370;2023-03-01T09:33:40;6.77;;;6.10;;
12884;SDS011;6510;51.362;7.370;2023-03-01T09:36:11;7.83;;;6.33;;
12884;SDS011;6510;51.362;7.370;2023-03-01T09:38:39;6.50;;;5.80;;
12884;SDS011;6510;51.362;7.370;2023-03-01T09:46:55;8.33;;;5.87;;
12884;SDS011;6510;51.362;7.370;2023-03-01T09:49:23;7.50;;;6.23;;
12884;SDS011;6510;51.362;7.370;2023-03-01T09:52:05;6.87;;;6.17;;
12884;SDS011;6510;51.362;7.370;2023-03-01T09:54:58;8.13;;;5.97;;
12884;SDS011;6510;51.362;7.370;2023-03-01T09:57:58;6.43;;;5.80;;
12884;SDS011;6510;51.362;7.370;2023-03-01T10:00:23;6.00;;;5.40;;
12884;SDS011;6510;51.362;7.370;2023-03-01T10:08:56;7.00;;;5.60;;
12884;SDS011;6510;51.362;7.370;2023-03-01T10:11:45;6.20;;;5.60;;
12884;SDS011;6510;51.362;7.370;2023-03-01T10:14:35;7.10;;;5.47;;
12884;SDS011;6510;51.362;7.370;2023-03-01T10:17:12;9.13;;;5.57;;
12884;SDS011;6510;51.362;7.370;2023-03-01T10:19:45;7.80;;;5.60;;
12884;SDS011;6510;51.362;7.370;2023-03-01T10:22:16;6.70;;;5.37;;
12884;SDS011;6510;51.362;7.370;2023-03-01T10:24:48;7.60;;;5.50;;
12884;SDS011;6510;51.362;7.370;2023-03-01T10:27:23;6.20;;;5.50;;
12884;SDS011;6510;51.362;7.370;2023-03-01T10:32:28;7.50;;;5.40;;
12884;SDS011;6510;51.362;7.370;2023-03-01T10:34:54;6.87;;;5.33;;
12884;SDS011;6510;51.362;7.370;2023-03-01T10:37:20;6.10;;;5.50;;
12884;SDS011;6510;51.362;7.370;2023-03-01T10:39:55;6.00;;;5.13;;
12884;SDS011;6510;51.362;7.370;2023-03-01T10:42:25;6.30;;;5.70;;
12884;SDS011;6510;51.362;7.370;2023-03-01T10:44:56;5.83;;;5.23;;
12884;SDS011;6510;51.362;7.370;2023-03-01T10:47:23;6.30;;;5.33;;
12884;SDS011;6510;51.362;7.370;2023-03-01T10:49:55;7.60;;;6.00;;
12884;SDS011;6510;51.362;7.370;2023-03-01T10:52:29;6.73;;;5.53;;
12884;SDS011;6510;51.362;7.370;2023-03-01T10:54:59;6.13;;;5.53;;
12884;SDS011;6510;51.362;7.370;2023-03-01T10:57:48;6.17;;;5.57;;
12884;SDS011;6510;51.362;7.370;2023-03-01T11:00:21;6.77;;;5.37;;
12884;SDS011;6510;51.362;7.370;2023-03-01T11:03:09;6.20;;;5.60;;
12884;SDS011;6510;51.362;7.370;2023-03-01T11:05:37;8.23;;;6.17;;
12884;SDS011;6510;51.362;7.370;2023-03-01T11:08:29;5.97;;;5.47;;
12884;SDS011;6510;51.362;7.370;2023-03-01T11:13:55;6.07;;;5.47;;
12884;SDS011;6510;51.362;7.370;2023-03-01T11:16:31;6.22;;;5.40;;
12884;SDS011;6510;51.362;7.370;2023-03-01T11:21:37;6.82;;;5.88;;
12884;SDS011;6510;51.362;7.370;2023-03-01T11:24:17;6.47;;;5.78;;
12884;SDS011;6510;51.362;7.370;2023-03-01T11:26:50;6.50;;;5.80;;
12884;SDS011;6510;51.362;7.370;2023-03-01T11:29:26;7.82;;;5.70;;
12884;SDS011;6510;51.362;7.370;2023-03-01T11:31:52;6.70;;;5.68;;
12884;SDS011;6510;51.362;7.370;2023-03-01T11:34:35;7.93;;;5.38;;
12884;SDS011;6510;51.362;7.370;2023-03-01T11:37:08;6.65;;;6.05;;
12884;SDS011;6510;51.362;7.370;2023-03-01T11:39:47;6.22;;;5.57;;
12884;SDS011;6510;51.362;7.370;2023-03-01T11:42:24;6.07;;;5.57;;
12884;SDS011;6510;51.362;7.370;2023-03-01T11:45:05;7.07;;;5.60;;
12884;SDS011;6510;51.362;7.370;2023-03-01T11:50:21;7.70;;;6.07;;
12884;SDS011;6510;51.362;7.370;2023-03-01T11:53:22;6.45;;;5.70;;
12884;SDS011;6510;51.362;7.370;2023-03-01T12:01:30;7.68;;;5.80;;
12884;SDS011;6510;51.362;7.370;2023-03-01T12:07:00;6.28;;;5.68;;
12884;SDS011;6510;51.362;7.370;2023-03-01T12:20:12;6.72;;;5.90;;
12884;SDS011;6510;51.362;7.370;2023-03-01T12:28:36;6.82;;;6.05;;
12884;SDS011;6510;51.362;7.370;2023-03-01T12:42:40;7.73;;;6.00;;
12884;SDS011;6510;51.362;7.370;2023-03-01T12:50:52;6.30;;;5.53;;
12884;SDS011;6510;51.362;7.370;2023-03-01T12:53:52;7.43;;;6.07;;
12884;SDS011;6510;51.362;7.370;2023-03-01T12:56:35;8.63;;;5.90;;
12884;SDS011;6510;51.362;7.370;2023-03-01T12:59:18;7.30;;;5.87;;
12884;SDS011;6510;51.362;7.370;2023-03-01T13:17:55;6.57;;;5.80;;
12884;SDS011;6510;51.362;7.370;2023-03-01T13:20:55;7.03;;;5.80;;
12884;SDS011;6510;51.362;7.370;2023-03-01T13:31:07;6.43;;;5.50;;
12884;SDS011;6510;51.362;7.370;2023-03-01T13:36:09;7.40;;;5.83;;
12884;SDS011;6510;51.362;7.370;2023-03-01T13:38:39;6.30;;;5.60;;
12884;SDS011;6510;51.362;7.370;2023-03-01T13:41:14;6.63;;;5.70;;
12884;SDS011;6510;51.362;7.370;2023-03-01T13:43:42;8.27;;;6.30;;
12884;SDS011;6510;51.362;7.370;2023-03-01T13:46:20;6.40;;;5.37;;
12884;SDS011;6510;51.362;7.370;2023-03-01T13:48:52;7.57;;;5.60;;
12884;SDS011;6510;51.362;7.370;2023-03-01T13:51:22;6.80;;;5.43;;
12884;SDS011;6510;51.362;7.370;2023-03-01T13:53:50;5.70;;;5.10;;
12884;SDS011;6510;51.362;7.370;2023-03-01T13:56:24;6.87;;;5.80;;
12884;SDS011;6510;51.362;7.370;2023-03-01T13:58:54;5.83;;;5.10;;
12884;SDS011;6510;51.362;7.370;2023-03-01T14:03:54;6.57;;;5.33;;
12884;SDS011;6510;51.362;7.370;2023-03-01T14:06:24;6.40;;;5.63;;
12884;SDS011;6510;51.362;7.370;2023-03-01T14:09:00;5.40;;;4.90;;
12884;SDS011;6510;51.362;7.370;2023-03-01T14:14:14;7.07;;;5.60;;
12884;SDS011;6510;51.362;7.370;2023-03-01T14:19:41;7.27;;;4.83;;
12884;SDS011;6510;51.362;7.370;2023-03-01T14:22:19;6.10;;;5.03;;
12884;SDS011;6510;51.362;7.370;2023-03-01T14:24:57;6.47;;;5.03;;
12884;SDS011;6510;51.362;7.370;2023-03-01T14:27:38;5.27;;;4.70;;
12884;SDS011;6510;51.362;7.370;2023-03-01T14:30:20;6.27;;;4.83;;
12884;SDS011;6510;51.362;7.370;2023-03-01T14:32:55;5.63;;;4.70;;
12884;SDS011;6510;51.362;7.370;2023-03-01T14:35:27;6.47;;;4.87;;
12884;SDS011;6510;51.362;7.370;2023-03-01T14:37:54;5.53;;;4.90;;
12884;SDS011;6510;51.362;7.370;2023-03-01T14:40:22;7.63;;;5.10;;
12884;SDS011;6510;51.362;7.370;2023-03-01T14:42:50;6.70;;;5.23;;
12884;SDS011;6510;51.362;7.370;2023-03-01T14:45:16;5.67;;;4.83;;
12884;SDS011;6510;51.362;7.370;2023-03-01T14:47:43;6.80;;;5.27;;
12884;SDS011;6510;51.362;7.370;2023-03-01T14:52:50;14.83;;;9.87;;
12884;SDS011;6510;51.362;7.370;2023-03-01T14:55:20;6.70;;;5.53;;
12884;SDS011;6510;51.362;7.370;2023-03-01T14:57:50;7.10;;;5.43;;
12884;SDS011;6510;51.362;7.370;2023-03-01T15:00:27;13.17;;;8.33;;
12884;SDS011;6510;51.362;7.370;2023-03-01T15:02:55;7.40;;;5.53;;
12884;SDS011;6510;51.362;7.370;2023-03-01T15:05:32;6.67;;;5.13;;
12884;SDS011;6510;51.362;7.370;2023-03-01T15:08:00;6.43;;;4.60;;
12884;SDS011;6510;51.362;7.370;2023-03-01T15:10:29;6.00;;;4.87;;
12884;SDS011;6510;51.362;7.370;2023-03-01T15:13:09;6.20;;;4.80;;
12884;SDS011;6510;51.362;7.370;2023-03-01T15:15:37;7.20;;;5.90;;
12884;SDS011;6510;51.362;7.370;2023-03-01T15:18:12;6.80;;;5.23;;
12884;SDS011;6510;51.362;7.370;2023-03-01T15:20:38;6.90;;;5.10;;
12884;SDS011;6510;51.362;7.370;2023-03-01T16:05:29;7.40;;;5.03;;
12884;SDS011;6510;51.362;7.370;2023-03-01T16:07:56;9.13;;;4.93;;
12884;SDS011;6510;51.362;7.370;2023-03-01T16:10:22;7.20;;;5.67;;
12884;SDS011;6510;51.362;7.370;2023-03-01T16:12:49;5.67;;;4.70;;
12884;SDS011;6510;51.362;7.370;2023-03-01T16:15:22;5.97;;;5.00;;
12884;SDS011;6510;51.362;7.370;2023-03-01T16:17:52;5.40;;;4.47;;
12884;SDS011;6510;51.362;7.370;2023-03-01T16:20:21;8.17;;;4.73;;
12884;SDS011;6510;51.362;7.370;2023-03-01T16:22:50;5.33;;;3.93;;
12884;SDS011;6510;51.362;7.370;2023-03-01T16:25:17;5.13;;;4.20;;
12884;SDS011;6510;51.362;7.370;2023-03-01T16:27:44;6.43;;;5.27;;
12884;SDS011;6510;51.362;7.370;2023-03-01T16:30:15;6.37;;;4.50;;
12884;SDS011;6510;51.362;7.370;2023-03-01T16:32:43;7.33;;;5.40;;
12884;SDS011;6510;51.362;7.370;2023-03-01T16:35:11;7.20;;;4.87;;
12884;SDS011;6510;51.362;7.370;2023-03-01T16:37:39;9.70;;;5.23;;
12884;SDS011;6510;51.362;7.370;2023-03-01T16:40:05;6.07;;;4.70;;
12884;SDS011;6510;51.362;7.370;2023-03-01T16:42:40;5.77;;;4.00;;
12884;SDS011;6510;51.362;7.370;2023-03-01T16:45:07;8.63;;;4.77;;
12884;SDS011;6510;51.362;7.370;2023-03-01T16:47:33;7.57;;;4.53;;
12884;SDS011;6510;51.362;7.370;2023-03-01T16:49:59;6.00;;;4.80;;
12884;SDS011;6510;51.362;7.370;2023-03-01T16:52:25;6.27;;;4.97;;
12884;SDS011;6510;51.362;7.370;2023-03-01T16:54:51;8.37;;;5.40;;
12884;SDS011;6510;51.362;7.370;2023-03-01T16:57:16;7.00;;;4.97;;
12884;SDS011;6510;51.362;7.370;2023-03-01T16:59:42;9.13;;;4.73;;
12884;SDS011;6510;51.362;7.370;2023-03-01T17:02:11;5.97;;;4.50;;
12884;SDS011;6510;51.362;7.370;2023-03-01T17:04:39;6.40;;;4.40;;
12884;SDS011;6510;51.362;7.370;2023-03-01T17:07:05;6.90;;;5.00;;
12884;SDS011;6510;51.362;7.370;2023-03-01T17:09:33;6.50;;;4.70;;
12884;SDS011;6510;51.362;7.370;2023-03-01T17:12:00;6.10;;;5.50;;
12884;SDS011;6510;51.362;7.370;2023-03-01T17:14:26;5.93;;;4.40;;
12884;SDS011;6510;51.362;7.370;2023-03-01T17:16:51;7.37;;;5.03;;
12884;SDS011;6510;51.362;7.370;2023-03-01T17:19:19;12.10;;;6.00;;
12884;SDS011;6510;51.362;7.370;2023-03-01T17:21:45;6.30;;;4.50;;
12884;SDS011;6510;51.362;7.370;2023-03-01T17:24:13;7.80;;;4.80;;
12884;SDS011;6510;51.362;7.370;2023-03-01T17:26:38;8.27;;;4.83;;
12884;SDS011;6510;51.362;7.370;2023-03-01T17:29:04;6.03;;;4.87;;
12884;SDS011;6510;51.362;7.370;2023-03-01T17:31:31;6.23;;;4.90;;
12884;SDS011;6510;51.362;7.370;2023-03-01T17:33:57;10.30;;;4.87;;
12884;SDS011;6510;51.362;7.370;2023-03-01T17:36:23;7.40;;;4.80;;
12884;SDS011;6510;51.362;7.370;2023-03-01T17:38:49;10.30;;;4.63;;
12884;SDS011;6510;51.362;7.370;2023-03-01T17:41:15;5.77;;;4.90;;
12884;SDS011;6510;51.362;7.370;2023-03-01T17:43:43;6.07;;;4.60;;
12884;SDS011;6510;51.362;7.370;2023-03-01T17:46:09;6.87;;;4.70;;